sensor_id;sensor_type;location;lat;lon;timestamp;temperature;humidity
68977;SHT31;56029;52.568;13.588;2022-10-30T00:00:00;13.09;99.99
68977;SHT31;56029;52.568;13.588;2022-10-30T00:02:25;13.11;99.99
68977;SHT31;56029;52.568;13.588;2022-10-30T00:04:51;13.11;99.99
68977;SHT31;56029;52.568;13.588;2022-10-30T00:07:16;13.05;99.99
68977;SHT31;56029;52.568;13.588;2022-10-30T00:09:42;13.01;99.99
68977;SHT31;56029;52.568;13.588;2022-10-30T00:12:07;12.97;99.99
68977;SHT31;56029;52.568;13.588;2022-10-30T00:14:33;12.92;99.99
68977;SHT31;56029;52.568;13.588;2022-10-30T00:16:58;12.94;99.99
68977;SHT31;56029;52.568;13.588;2022-10-30T00:19:27;12.87;99.99
68977;SHT31;56029;52.568;13.588;2022-10-30T00:21:52;12.84;99.99
68977;SHT31;56029;52.568;13.588;2022-10-30T00:24:19;12.80;99.99
68977;SHT31;56029;52.568;13.588;2022-10-30T00:26:44;12.80;99.99
68977;SHT31;56029;52.568;13.588;2022-10-30T00:29:09;12.77;99.99
68977;SHT31;56029;52.568;13.588;2022-10-30T00:31:35;12.77;99.99
68977;SHT31;56029;52.568;13.588;2022-10-30T00:34:00;12.74;99.99
68977;SHT31;56029;52.568;13.588;2022-10-30T00:36:26;12.73;99.99
68977;SHT31;56029;52.568;13.588;2022-10-30T00:38:51;12.73;99.99
68977;SHT31;56029;52.568;13.588;2022-10-30T00:41:22;12.71;99.99
68977;SHT31;56029;52.568;13.588;2022-10-30T00:43:48;12.61;99.99
68977;SHT31;56029;52.568;13.588;2022-10-30T00:46:20;12.57;99.99
68977;SHT31;56029;52.568;13.588;2022-10-30T00:49:08;12.54;99.99
68977;SHT31;56029;52.568;13.588;2022-10-30T00:51:36;12.49;99.99
68977;SHT31;56029;52.568;13.588;2022-10-30T00:54:04;12.49;99.99
68977;SHT31;56029;52.568;13.588;2022-10-30T00:56:30;12.47;99.99
68977;SHT31;56029;52.568;13.588;2022-10-30T00:59:00;12.49;99.99
68977;SHT31;56029;52.568;13.588;2022-10-30T01:01:28;12.43;99.99
68977;SHT31;56029;52.568;13.588;2022-10-30T01:03:59;12.40;99.99
68977;SHT31;56029;52.568;13.588;2022-10-30T01:06:25;12.44;99.99
68977;SHT31;56029;52.568;13.588;2022-10-30T01:08:53;12.39;99.99
68977;SHT31;56029;52.568;13.588;2022-10-30T01:11:19;12.40;99.99
68977;SHT31;56029;52.568;13.588;2022-10-30T01:13:47;12.44;99.99
68977;SHT31;56029;52.568;13.588;2022-10-30T01:16:34;12.43;99.99
68977;SHT31;56029;52.568;13.588;2022-10-30T01:19:15;12.44;99.99
68977;SHT31;56029;52.568;13.588;2022-10-30T01:24:48;12.44;99.99
68977;SHT31;56029;52.568;13.588;2022-10-30T01:30:39;12.49;99.99
68977;SHT31;56029;52.568;13.588;2022-10-30T01:33:19;12.49;99.99
68977;SHT31;56029;52.568;13.588;2022-10-30T01:35:52;12.46;99.99
68977;SHT31;56029;52.568;13.588;2022-10-30T01:38:26;12.43;99.99
68977;SHT31;56029;52.568;13.588;2022-10-30T01:40:53;12.40;99.99
68977;SHT31;56029;52.568;13.588;2022-10-30T01:43:19;12.39;99.99
68977;SHT31;56029;52.568;13.588;2022-10-30T01:53:50;12.22;99.99
68977;SHT31;56029;52.568;13.588;2022-10-30T01:56:19;12.13;99.99
68977;SHT31;56029;52.568;13.588;2022-10-30T01:59:11;12.11;99.99
68977;SHT31;56029;52.568;13.588;2022-10-30T02:01:38;12.09;99.99
68977;SHT31;56029;52.568;13.588;2022-10-30T02:04:06;12.02;99.99
68977;SHT31;56029;52.568;13.588;2022-10-30T02:06:32;11.99;99.99
68977;SHT31;56029;52.568;13.588;2022-10-30T02:08:57;11.98;99.99
68977;SHT31;56029;52.568;13.588;2022-10-30T02:11:24;11.93;99.99
68977;SHT31;56029;52.568;13.588;2022-10-30T02:13:53;11.89;99.99
68977;SHT31;56029;52.568;13.588;2022-10-30T02:16:19;11.82;99.99
68977;SHT31;56029;52.568;13.588;2022-10-30T02:18:45;11.79;99.99
68977;SHT31;56029;52.568;13.588;2022-10-30T02:21:10;11.74;99.99
68977;SHT31;56029;52.568;13.588;2022-10-30T02:23:36;11.61;99.99
68977;SHT31;56029;52.568;13.588;2022-10-30T02:26:02;11.62;99.99
68977;SHT31;56029;52.568;13.588;2022-10-30T02:28:28;11.57;99.99
68977;SHT31;56029;52.568;13.588;2022-10-30T02:30:53;11.55;99.99
68977;SHT31;56029;52.568;13.588;2022-10-30T02:33:19;11.51;99.99
68977;SHT31;56029;52.568;13.588;2022-10-30T02:35:44;11.53;99.99
68977;SHT31;56029;52.568;13.588;2022-10-30T02:38:09;11.51;99.99
68977;SHT31;56029;52.568;13.588;2022-10-30T02:40:35;11.48;99.99
68977;SHT31;56029;52.568;13.588;2022-10-30T02:43:00;11.47;99.99
68977;SHT31;56029;52.568;13.588;2022-10-30T02:45:26;11.45;99.99
68977;SHT31;56029;52.568;13.588;2022-10-30T02:47:52;11.44;99.99
68977;SHT31;56029;52.568;13.588;2022-10-30T02:50:17;11.45;99.99
68977;SHT31;56029;52.568;13.588;2022-10-30T02:52:43;11.44;99.99
68977;SHT31;56029;52.568;13.588;2022-10-30T02:55:09;11.41;99.99
68977;SHT31;56029;52.568;13.588;2022-10-30T02:57:34;11.41;99.99
68977;SHT31;56029;52.568;13.588;2022-10-30T02:59:59;11.43;99.99
68977;SHT31;56029;52.568;13.588;2022-10-30T03:02:26;11.38;99.99
68977;SHT31;56029;52.568;13.588;2022-10-30T03:04:51;11.31;99.99
68977;SHT31;56029;52.568;13.588;2022-10-30T03:07:17;11.30;99.99
68977;SHT31;56029;52.568;13.588;2022-10-30T03:09:42;11.28;99.99
68977;SHT31;56029;52.568;13.588;2022-10-30T03:12:08;11.27;99.99
68977;SHT31;56029;52.568;13.588;2022-10-30T03:14:33;11.30;99.99
68977;SHT31;56029;52.568;13.588;2022-10-30T03:16:59;11.30;99.99
68977;SHT31;56029;52.568;13.588;2022-10-30T03:19:24;11.23;99.99
68977;SHT31;56029;52.568;13.588;2022-10-30T03:21:49;11.22;99.99
68977;SHT31;56029;52.568;13.588;2022-10-30T03:24:15;11.20;99.99
68977;SHT31;56029;52.568;13.588;2022-10-30T03:26:40;11.17;99.99
68977;SHT31;56029;52.568;13.588;2022-10-30T03:29:06;11.16;99.99
68977;SHT31;56029;52.568;13.588;2022-10-30T03:31:32;11.14;99.99
68977;SHT31;56029;52.568;13.588;2022-10-30T03:33:58;11.14;99.99
68977;SHT31;56029;52.568;13.588;2022-10-30T03:36:24;11.22;99.99
68977;SHT31;56029;52.568;13.588;2022-10-30T03:38:50;11.28;99.99
68977;SHT31;56029;52.568;13.588;2022-10-30T03:41:15;11.43;99.99
68977;SHT31;56029;52.568;13.588;2022-10-30T03:43:41;11.54;99.99
68977;SHT31;56029;52.568;13.588;2022-10-30T03:46:08;11.68;99.99
68977;SHT31;56029;52.568;13.588;2022-10-30T03:48:34;11.77;99.99
68977;SHT31;56029;52.568;13.588;2022-10-30T03:50:59;11.86;99.99
68977;SHT31;56029;52.568;13.588;2022-10-30T03:53:26;11.96;99.99
68977;SHT31;56029;52.568;13.588;2022-10-30T03:55:57;12.06;99.99
68977;SHT31;56029;52.568;13.588;2022-10-30T03:58:23;12.15;99.99
68977;SHT31;56029;52.568;13.588;2022-10-30T04:00:49;12.22;99.99
68977;SHT31;56029;52.568;13.588;2022-10-30T04:03:14;12.29;99.99
68977;SHT31;56029;52.568;13.588;2022-10-30T04:05:40;12.34;99.99
68977;SHT31;56029;52.568;13.588;2022-10-30T04:08:10;12.39;99.99
68977;SHT31;56029;52.568;13.588;2022-10-30T04:10:36;12.33;99.99
68977;SHT31;56029;52.568;13.588;2022-10-30T04:13:04;12.34;99.99
68977;SHT31;56029;52.568;13.588;2022-10-30T04:15:30;12.37;99.99
68977;SHT31;56029;52.568;13.588;2022-10-30T04:17:56;12.46;99.99
68977;SHT31;56029;52.568;13.588;2022-10-30T04:20:23;12.50;99.99
68977;SHT31;56029;52.568;13.588;2022-10-30T04:22:54;12.47;99.99
68977;SHT31;56029;52.568;13.588;2022-10-30T04:25:20;12.43;99.99
68977;SHT31;56029;52.568;13.588;2022-10-30T04:27:45;12.40;99.99
68977;SHT31;56029;52.568;13.588;2022-10-30T04:30:11;12.46;99.99
68977;SHT31;56029;52.568;13.588;2022-10-30T04:32:47;12.30;99.99
68977;SHT31;56029;52.568;13.588;2022-10-30T04:35:15;12.19;99.99
68977;SHT31;56029;52.568;13.588;2022-10-30T04:37:41;12.12;99.99
68977;SHT31;56029;52.568;13.588;2022-10-30T04:40:07;12.05;99.99
68977;SHT31;56029;52.568;13.588;2022-10-30T04:42:33;11.98;99.99
68977;SHT31;56029;52.568;13.588;2022-10-30T04:44:59;11.95;99.99
68977;SHT31;56029;52.568;13.588;2022-10-30T04:47:28;11.92;99.99
68977;SHT31;56029;52.568;13.588;2022-10-30T04:49:53;11.89;99.99
68977;SHT31;56029;52.568;13.588;2022-10-30T04:52:19;11.89;99.99
68977;SHT31;56029;52.568;13.588;2022-10-30T04:54:44;11.86;99.99
68977;SHT31;56029;52.568;13.588;2022-10-30T04:57:10;11.85;99.99
68977;SHT31;56029;52.568;13.588;2022-10-30T04:59:36;11.83;99.99
68977;SHT31;56029;52.568;13.588;2022-10-30T05:02:01;11.83;99.99
68977;SHT31;56029;52.568;13.588;2022-10-30T05:04:27;11.79;99.99
68977;SHT31;56029;52.568;13.588;2022-10-30T05:06:52;11.82;99.99
68977;SHT31;56029;52.568;13.588;2022-10-30T05:09:18;11.82;99.99
68977;SHT31;56029;52.568;13.588;2022-10-30T05:11:43;11.81;99.99
68977;SHT31;56029;52.568;13.588;2022-10-30T05:14:09;11.83;99.99
68977;SHT31;56029;52.568;13.588;2022-10-30T05:16:34;11.81;99.99
68977;SHT31;56029;52.568;13.588;2022-10-30T05:19:00;11.81;99.99
68977;SHT31;56029;52.568;13.588;2022-10-30T05:21:25;11.78;99.99
68977;SHT31;56029;52.568;13.588;2022-10-30T05:23:51;11.78;99.99
68977;SHT31;56029;52.568;13.588;2022-10-30T05:26:16;11.77;99.99
68977;SHT31;56029;52.568;13.588;2022-10-30T05:28:41;11.81;99.99
68977;SHT31;56029;52.568;13.588;2022-10-30T05:33:35;11.82;99.99
68977;SHT31;56029;52.568;13.588;2022-10-30T05:36:00;11.85;99.99
68977;SHT31;56029;52.568;13.588;2022-10-30T05:38:25;11.89;99.99
68977;SHT31;56029;52.568;13.588;2022-10-30T05:40:51;11.93;99.99
68977;SHT31;56029;52.568;13.588;2022-10-30T05:43:16;11.91;99.99
68977;SHT31;56029;52.568;13.588;2022-10-30T05:45:43;11.98;99.99
68977;SHT31;56029;52.568;13.588;2022-10-30T05:48:09;11.96;99.99
68977;SHT31;56029;52.568;13.588;2022-10-30T05:50:34;11.96;99.99
68977;SHT31;56029;52.568;13.588;2022-10-30T05:53:01;11.95;99.99
68977;SHT31;56029;52.568;13.588;2022-10-30T05:55:27;11.96;99.99
68977;SHT31;56029;52.568;13.588;2022-10-30T05:57:57;11.96;99.99
68977;SHT31;56029;52.568;13.588;2022-10-30T06:00:23;11.98;99.99
68977;SHT31;56029;52.568;13.588;2022-10-30T06:02:49;12.02;99.99
68977;SHT31;56029;52.568;13.588;2022-10-30T06:05:15;12.06;99.99
68977;SHT31;56029;52.568;13.588;2022-10-30T06:07:40;12.11;99.99
68977;SHT31;56029;52.568;13.588;2022-10-30T06:10:06;12.12;99.99
68977;SHT31;56029;52.568;13.588;2022-10-30T06:12:31;12.13;99.99
68977;SHT31;56029;52.568;13.588;2022-10-30T06:14:57;12.18;99.99
68977;SHT31;56029;52.568;13.588;2022-10-30T06:17:22;12.22;99.99
68977;SHT31;56029;52.568;13.588;2022-10-30T06:19:48;12.23;99.99
68977;SHT31;56029;52.568;13.588;2022-10-30T06:22:13;12.19;99.99
68977;SHT31;56029;52.568;13.588;2022-10-30T06:24:39;12.16;99.99
68977;SHT31;56029;52.568;13.588;2022-10-30T06:27:04;12.20;99.99
68977;SHT31;56029;52.568;13.588;2022-10-30T06:29:30;12.19;99.99
68977;SHT31;56029;52.568;13.588;2022-10-30T06:31:55;12.19;99.99
68977;SHT31;56029;52.568;13.588;2022-10-30T06:34:21;12.23;99.99
68977;SHT31;56029;52.568;13.588;2022-10-30T06:36:46;12.23;99.99
68977;SHT31;56029;52.568;13.588;2022-10-30T06:39:11;12.25;99.99
68977;SHT31;56029;52.568;13.588;2022-10-30T06:41:37;12.25;99.99
68977;SHT31;56029;52.568;13.588;2022-10-30T06:44:02;12.30;99.99
68977;SHT31;56029;52.568;13.588;2022-10-30T06:46:28;12.32;99.99
68977;SHT31;56029;52.568;13.588;2022-10-30T06:48:54;12.34;99.99
68977;SHT31;56029;52.568;13.588;2022-10-30T06:51:19;12.37;99.99
68977;SHT31;56029;52.568;13.588;2022-10-30T06:53:45;12.40;99.99
68977;SHT31;56029;52.568;13.588;2022-10-30T06:56:10;12.41;99.99
68977;SHT31;56029;52.568;13.588;2022-10-30T06:58:36;12.44;99.99
68977;SHT31;56029;52.568;13.588;2022-10-30T07:01:04;12.43;99.99
68977;SHT31;56029;52.568;13.588;2022-10-30T07:03:31;12.46;99.99
68977;SHT31;56029;52.568;13.588;2022-10-30T07:05:56;12.46;99.99
68977;SHT31;56029;52.568;13.588;2022-10-30T07:08:22;12.49;99.99
68977;SHT31;56029;52.568;13.588;2022-10-30T07:10:48;12.54;99.99
68977;SHT31;56029;52.568;13.588;2022-10-30T07:13:13;12.51;99.99
68977;SHT31;56029;52.568;13.588;2022-10-30T07:15:38;12.56;99.99
68977;SHT31;56029;52.568;13.588;2022-10-30T07:18:04;12.57;99.99
68977;SHT31;56029;52.568;13.588;2022-10-30T07:20:32;12.61;99.99
68977;SHT31;56029;52.568;13.588;2022-10-30T07:22:58;12.67;99.99
68977;SHT31;56029;52.568;13.588;2022-10-30T07:25:24;12.73;99.99
68977;SHT31;56029;52.568;13.588;2022-10-30T07:27:51;12.74;99.99
68977;SHT31;56029;52.568;13.588;2022-10-30T07:30:24;12.84;99.99
68977;SHT31;56029;52.568;13.588;2022-10-30T07:32:58;12.85;99.99
68977;SHT31;56029;52.568;13.588;2022-10-30T07:35:24;12.91;99.99
68977;SHT31;56029;52.568;13.588;2022-10-30T07:37:49;12.95;99.99
68977;SHT31;56029;52.568;13.588;2022-10-30T07:40:15;13.01;99.99
68977;SHT31;56029;52.568;13.588;2022-10-30T07:42:41;13.01;99.99
68977;SHT31;56029;52.568;13.588;2022-10-30T07:45:07;13.05;99.99
68977;SHT31;56029;52.568;13.588;2022-10-30T07:47:38;13.11;99.99
68977;SHT31;56029;52.568;13.588;2022-10-30T07:50:04;13.19;99.99
68977;SHT31;56029;52.568;13.588;2022-10-30T07:52:31;13.26;99.99
68977;SHT31;56029;52.568;13.588;2022-10-30T07:54:56;13.36;99.99
68977;SHT31;56029;52.568;13.588;2022-10-30T07:57:22;13.39;99.99
68977;SHT31;56029;52.568;13.588;2022-10-30T07:59:47;13.49;99.99
68977;SHT31;56029;52.568;13.588;2022-10-30T08:02:13;13.59;99.99
68977;SHT31;56029;52.568;13.588;2022-10-30T08:04:38;13.67;99.99
68977;SHT31;56029;52.568;13.588;2022-10-30T08:07:03;13.76;99.99
68977;SHT31;56029;52.568;13.588;2022-10-30T08:09:29;13.84;99.99
68977;SHT31;56029;52.568;13.588;2022-10-30T08:11:54;13.90;99.99
68977;SHT31;56029;52.568;13.588;2022-10-30T08:14:20;14.00;99.99
68977;SHT31;56029;52.568;13.588;2022-10-30T08:16:46;14.10;99.99
68977;SHT31;56029;52.568;13.588;2022-10-30T08:19:11;14.18;99.99
68977;SHT31;56029;52.568;13.588;2022-10-30T08:21:37;14.25;99.96
68977;SHT31;56029;52.568;13.588;2022-10-30T08:24:02;14.36;99.54
68977;SHT31;56029;52.568;13.588;2022-10-30T08:26:28;14.51;99.42
68977;SHT31;56029;52.568;13.588;2022-10-30T08:28:53;14.58;98.72
68977;SHT31;56029;52.568;13.588;2022-10-30T08:31:19;14.65;98.03
68977;SHT31;56029;52.568;13.588;2022-10-30T08:33:44;14.68;97.76
68977;SHT31;56029;52.568;13.588;2022-10-30T08:36:10;14.65;97.49
68977;SHT31;56029;52.568;13.588;2022-10-30T08:38:35;14.71;97.27
68977;SHT31;56029;52.568;13.588;2022-10-30T08:41:01;14.72;97.08
68977;SHT31;56029;52.568;13.588;2022-10-30T08:43:28;14.73;97.04
68977;SHT31;56029;52.568;13.588;2022-10-30T08:45:56;14.68;97.13
68977;SHT31;56029;52.568;13.588;2022-10-30T08:48:22;14.79;96.62
68977;SHT31;56029;52.568;13.588;2022-10-30T08:50:48;14.75;96.92
68977;SHT31;56029;52.568;13.588;2022-10-30T08:53:14;14.83;96.42
68977;SHT31;56029;52.568;13.588;2022-10-30T08:55:40;14.86;96.47
68977;SHT31;56029;52.568;13.588;2022-10-30T08:58:06;15.02;95.44
68977;SHT31;56029;52.568;13.588;2022-10-30T09:00:31;15.08;94.97
68977;SHT31;56029;52.568;13.588;2022-10-30T09:02:57;15.17;95.39
68977;SHT31;56029;52.568;13.588;2022-10-30T09:05:23;15.26;94.64
68977;SHT31;56029;52.568;13.588;2022-10-30T09:07:48;15.30;93.74
68977;SHT31;56029;52.568;13.588;2022-10-30T09:10:14;15.38;93.71
68977;SHT31;56029;52.568;13.588;2022-10-30T09:12:40;15.37;93.67
68977;SHT31;56029;52.568;13.588;2022-10-30T09:15:06;15.38;93.40
68977;SHT31;56029;52.568;13.588;2022-10-30T09:17:32;15.34;93.77
68977;SHT31;56029;52.568;13.588;2022-10-30T09:19:57;15.40;93.77
68977;SHT31;56029;52.568;13.588;2022-10-30T09:22:23;15.47;93.24
68977;SHT31;56029;52.568;13.588;2022-10-30T09:24:48;15.57;93.61
68977;SHT31;56029;52.568;13.588;2022-10-30T09:27:14;15.66;92.87
68977;SHT31;56029;52.568;13.588;2022-10-30T09:29:39;15.68;92.82
68977;SHT31;56029;52.568;13.588;2022-10-30T09:32:05;15.75;92.55
68977;SHT31;56029;52.568;13.588;2022-10-30T09:34:35;15.83;92.96
68977;SHT31;56029;52.568;13.588;2022-10-30T09:37:00;15.91;91.10
68977;SHT31;56029;52.568;13.588;2022-10-30T09:39:26;15.92;91.43
68977;SHT31;56029;52.568;13.588;2022-10-30T09:42:21;16.02;90.80
68977;SHT31;56029;52.568;13.588;2022-10-30T09:45:02;16.13;90.11
68977;SHT31;56029;52.568;13.588;2022-10-30T09:47:44;16.26;89.57
68977;SHT31;56029;52.568;13.588;2022-10-30T09:50:31;16.34;89.36
68977;SHT31;56029;52.568;13.588;2022-10-30T09:53:12;16.41;89.06
68977;SHT31;56029;52.568;13.588;2022-10-30T09:58:51;16.49;89.13
68977;SHT31;56029;52.568;13.588;2022-10-30T10:01:29;16.47;88.85
68977;SHT31;56029;52.568;13.588;2022-10-30T10:06:27;16.68;86.48
68977;SHT31;56029;52.568;13.588;2022-10-30T10:08:57;16.71;87.12
68977;SHT31;56029;52.568;13.588;2022-10-30T10:11:34;16.87;85.76
68977;SHT31;56029;52.568;13.588;2022-10-30T10:14:13;16.99;85.38
68977;SHT31;56029;52.568;13.588;2022-10-30T10:16:40;17.07;85.39
68977;SHT31;56029;52.568;13.588;2022-10-30T10:19:18;17.08;85.74
68977;SHT31;56029;52.568;13.588;2022-10-30T10:21:48;17.07;85.91
68977;SHT31;56029;52.568;13.588;2022-10-30T10:24:19;17.11;85.54
68977;SHT31;56029;52.568;13.588;2022-10-30T10:26:48;17.16;85.85
68977;SHT31;56029;52.568;13.588;2022-10-30T10:29:46;17.19;86.04
68977;SHT31;56029;52.568;13.588;2022-10-30T10:32:31;17.25;85.74
68977;SHT31;56029;52.568;13.588;2022-10-30T10:35:23;17.22;85.55
68977;SHT31;56029;52.568;13.588;2022-10-30T10:43:30;17.74;83.14
68977;SHT31;56029;52.568;13.588;2022-10-30T10:46:17;17.78;83.57
68977;SHT31;56029;52.568;13.588;2022-10-30T10:48:46;17.83;82.90
68977;SHT31;56029;52.568;13.588;2022-10-30T10:53:54;18.14;81.46
68977;SHT31;56029;52.568;13.588;2022-10-30T10:56:26;18.21;80.81
68977;SHT31;56029;52.568;13.588;2022-10-30T10:58:55;18.32;80.47
68977;SHT31;56029;52.568;13.588;2022-10-30T11:01:33;18.32;80.83
68977;SHT31;56029;52.568;13.588;2022-10-30T11:04:14;18.26;81.50
68977;SHT31;56029;52.568;13.588;2022-10-30T11:06:45;18.25;80.94
68977;SHT31;56029;52.568;13.588;2022-10-30T11:09:17;18.28;81.44
68977;SHT31;56029;52.568;13.588;2022-10-30T11:11:46;18.32;80.21
68977;SHT31;56029;52.568;13.588;2022-10-30T11:14:20;18.44;79.72
68977;SHT31;56029;52.568;13.588;2022-10-30T11:17:10;18.57;78.92
68977;SHT31;56029;52.568;13.588;2022-10-30T11:19:37;18.69;77.93
68977;SHT31;56029;52.568;13.588;2022-10-30T11:22:30;18.79;77.69
68977;SHT31;56029;52.568;13.588;2022-10-30T11:24:54;18.83;78.15
68977;SHT31;56029;52.568;13.588;2022-10-30T11:29:57;18.87;76.72
68977;SHT31;56029;52.568;13.588;2022-10-30T11:32:27;18.90;77.16
68977;SHT31;56029;52.568;13.588;2022-10-30T11:35:00;18.89;78.59
68977;SHT31;56029;52.568;13.588;2022-10-30T11:37:31;19.00;76.82
68977;SHT31;56029;52.568;13.588;2022-10-30T11:42:46;19.20;75.86
68977;SHT31;56029;52.568;13.588;2022-10-30T11:45:18;19.25;75.37
68977;SHT31;56029;52.568;13.588;2022-10-30T11:47:45;19.28;74.66
68977;SHT31;56029;52.568;13.588;2022-10-30T11:50:18;19.34;74.41
68977;SHT31;56029;52.568;13.588;2022-10-30T11:52:46;19.36;74.81
68977;SHT31;56029;52.568;13.588;2022-10-30T11:57:42;19.42;74.74
68977;SHT31;56029;52.568;13.588;2022-10-30T12:00:21;19.45;74.19
68977;SHT31;56029;52.568;13.588;2022-10-30T12:02:48;19.45;74.88
68977;SHT31;56029;52.568;13.588;2022-10-30T12:05:35;19.73;73.08
68977;SHT31;56029;52.568;13.588;2022-10-30T12:13:19;19.93;73.24
68977;SHT31;56029;52.568;13.588;2022-10-30T12:15:47;19.90;72.37
68977;SHT31;56029;52.568;13.588;2022-10-30T12:18:23;19.89;73.86
68977;SHT31;56029;52.568;13.588;2022-10-30T12:20:53;19.99;71.38
68977;SHT31;56029;52.568;13.588;2022-10-30T12:23:22;20.23;71.66
68977;SHT31;56029;52.568;13.588;2022-10-30T12:25:52;20.16;71.67
68977;SHT31;56029;52.568;13.588;2022-10-30T12:28:22;20.23;71.67
68977;SHT31;56029;52.568;13.588;2022-10-30T12:30:55;20.24;70.93
68977;SHT31;56029;52.568;13.588;2022-10-30T12:33:33;20.23;70.83
68977;SHT31;56029;52.568;13.588;2022-10-30T12:36:02;20.41;69.72
68977;SHT31;56029;52.568;13.588;2022-10-30T12:38:35;20.43;69.84
68977;SHT31;56029;52.568;13.588;2022-10-30T12:41:19;20.43;69.91
68977;SHT31;56029;52.568;13.588;2022-10-30T12:43:58;20.51;69.24
68977;SHT31;56029;52.568;13.588;2022-10-30T12:46:47;20.36;70.55
68977;SHT31;56029;52.568;13.588;2022-10-30T12:49:30;20.36;70.36
68977;SHT31;56029;52.568;13.588;2022-10-30T12:52:20;20.34;69.32
68977;SHT31;56029;52.568;13.588;2022-10-30T12:55:00;20.33;70.63
68977;SHT31;56029;52.568;13.588;2022-10-30T12:57:30;20.37;70.56
68977;SHT31;56029;52.568;13.588;2022-10-30T13:00:14;20.40;69.62
68977;SHT31;56029;52.568;13.588;2022-10-30T13:03:19;20.60;68.63
68977;SHT31;56029;52.568;13.588;2022-10-30T13:05:53;20.58;68.33
68977;SHT31;56029;52.568;13.588;2022-10-30T13:08:26;20.64;68.24
68977;SHT31;56029;52.568;13.588;2022-10-30T13:11:01;20.57;69.17
68977;SHT31;56029;52.568;13.588;2022-10-30T13:13:36;20.61;69.18
68977;SHT31;56029;52.568;13.588;2022-10-30T13:16:07;20.68;69.25
68977;SHT31;56029;52.568;13.588;2022-10-30T13:18:36;20.74;69.25
68977;SHT31;56029;52.568;13.588;2022-10-30T13:24:14;20.71;68.39
68977;SHT31;56029;52.568;13.588;2022-10-30T13:29:49;20.69;69.15
68977;SHT31;56029;52.568;13.588;2022-10-30T13:32:34;20.63;69.88
68977;SHT31;56029;52.568;13.588;2022-10-30T13:35:19;20.77;69.13
68977;SHT31;56029;52.568;13.588;2022-10-30T13:37:57;20.78;69.50
68977;SHT31;56029;52.568;13.588;2022-10-30T13:40:33;20.82;68.64
68977;SHT31;56029;52.568;13.588;2022-10-30T13:43:15;20.85;68.96
68977;SHT31;56029;52.568;13.588;2022-10-30T13:45:52;20.88;68.47
68977;SHT31;56029;52.568;13.588;2022-10-30T13:51:41;20.75;69.14
68977;SHT31;56029;52.568;13.588;2022-10-30T13:54:16;20.77;68.69
68977;SHT31;56029;52.568;13.588;2022-10-30T13:56:44;20.87;68.44
68977;SHT31;56029;52.568;13.588;2022-10-30T13:59:38;20.78;68.88
68977;SHT31;56029;52.568;13.588;2022-10-30T14:02:29;20.74;68.69
68977;SHT31;56029;52.568;13.588;2022-10-30T14:05:26;20.78;69.07
68977;SHT31;56029;52.568;13.588;2022-10-30T14:08:01;20.77;68.77
68977;SHT31;56029;52.568;13.588;2022-10-30T14:10:42;20.68;68.96
68977;SHT31;56029;52.568;13.588;2022-10-30T14:13:23;20.64;69.71
68977;SHT31;56029;52.568;13.588;2022-10-30T14:16:05;20.60;69.72
68977;SHT31;56029;52.568;13.588;2022-10-30T14:18:58;20.52;70.08
68977;SHT31;56029;52.568;13.588;2022-10-30T14:21:31;20.48;70.27
68977;SHT31;56029;52.568;13.588;2022-10-30T14:24:03;20.48;70.38
68977;SHT31;56029;52.568;13.588;2022-10-30T14:26:29;20.38;70.61
68977;SHT31;56029;52.568;13.588;2022-10-30T14:28:55;20.33;71.75
68977;SHT31;56029;52.568;13.588;2022-10-30T14:31:34;20.30;70.95
68977;SHT31;56029;52.568;13.588;2022-10-30T14:34:01;20.34;70.92
68977;SHT31;56029;52.568;13.588;2022-10-30T14:55:51;19.90;73.75
68977;SHT31;56029;52.568;13.588;2022-10-30T14:58:25;19.82;73.90
68977;SHT31;56029;52.568;13.588;2022-10-30T15:01:30;19.71;74.16
68977;SHT31;56029;52.568;13.588;2022-10-30T15:04:05;19.59;75.53
68977;SHT31;56029;52.568;13.588;2022-10-30T15:06:34;19.45;75.86
68977;SHT31;56029;52.568;13.588;2022-10-30T15:09:27;19.31;76.64
68977;SHT31;56029;52.568;13.588;2022-10-30T15:14:55;18.99;78.28
68977;SHT31;56029;52.568;13.588;2022-10-30T15:17:33;18.83;79.07
68977;SHT31;56029;52.568;13.588;2022-10-30T15:20:04;18.66;79.78
68977;SHT31;56029;52.568;13.588;2022-10-30T15:22:32;18.55;80.10
68977;SHT31;56029;52.568;13.588;2022-10-30T15:25:00;18.41;81.07
68977;SHT31;56029;52.568;13.588;2022-10-30T15:27:26;18.24;82.98
68977;SHT31;56029;52.568;13.588;2022-10-30T15:29:59;18.05;83.39
68977;SHT31;56029;52.568;13.588;2022-10-30T15:32:25;17.93;83.35
68977;SHT31;56029;52.568;13.588;2022-10-30T15:35:00;17.76;84.02
68977;SHT31;56029;52.568;13.588;2022-10-30T15:37:27;17.65;84.28
68977;SHT31;56029;52.568;13.588;2022-10-30T15:40:16;17.51;84.27
68977;SHT31;56029;52.568;13.588;2022-10-30T15:42:42;17.37;85.54
68977;SHT31;56029;52.568;13.588;2022-10-30T15:45:20;17.22;86.61
68977;SHT31;56029;52.568;13.588;2022-10-30T15:47:53;17.07;86.85
68977;SHT31;56029;52.568;13.588;2022-10-30T15:50:21;16.92;87.33
68977;SHT31;56029;52.568;13.588;2022-10-30T15:52:46;16.79;87.60
68977;SHT31;56029;52.568;13.588;2022-10-30T15:55:15;16.68;87.62
68977;SHT31;56029;52.568;13.588;2022-10-30T15:57:51;16.56;88.24
68977;SHT31;56029;52.568;13.588;2022-10-30T16:00:24;16.43;88.63
68977;SHT31;56029;52.568;13.588;2022-10-30T16:03:15;16.31;88.85
68977;SHT31;56029;52.568;13.588;2022-10-30T16:05:40;16.24;89.01
68977;SHT31;56029;52.568;13.588;2022-10-30T16:08:14;16.12;89.44
68977;SHT31;56029;52.568;13.588;2022-10-30T16:10:40;16.02;89.63
68977;SHT31;56029;52.568;13.588;2022-10-30T16:13:14;15.96;89.85
68977;SHT31;56029;52.568;13.588;2022-10-30T16:15:42;15.85;89.85
68977;SHT31;56029;52.568;13.588;2022-10-30T16:18:20;15.72;90.42
68977;SHT31;56029;52.568;13.588;2022-10-30T16:20:49;15.65;90.75
68977;SHT31;56029;52.568;13.588;2022-10-30T16:23:17;15.55;91.12
68977;SHT31;56029;52.568;13.588;2022-10-30T16:25:44;15.47;91.16
68977;SHT31;56029;52.568;13.588;2022-10-30T16:28:30;15.34;91.43
68977;SHT31;56029;52.568;13.588;2022-10-30T16:31:00;15.26;91.96
68977;SHT31;56029;52.568;13.588;2022-10-30T16:33:28;15.14;92.08
68977;SHT31;56029;52.568;13.588;2022-10-30T16:35:54;15.08;91.94
68977;SHT31;56029;52.568;13.588;2022-10-30T16:38:21;14.99;92.22
68977;SHT31;56029;52.568;13.588;2022-10-30T16:40:47;14.89;92.38
68977;SHT31;56029;52.568;13.588;2022-10-30T16:43:30;14.82;92.70
68977;SHT31;56029;52.568;13.588;2022-10-30T16:46:29;14.76;92.96